sensor_id;sensor_type;location;lat;lon;timestamp;P1;durP1;ratioP1;P2;durP2;ratioP2
70414;SDS011;57837;52.064;113.478;2023-12-20T00:01:39;113.28;;;56.78;;
70414;SDS011;57837;52.064;113.478;2023-12-20T00:04:43;111.50;;;52.92;;
70414;SDS011;57837;52.064;113.478;2023-12-20T00:07:47;130.85;;;55.00;;
70414;SDS011;57837;52.064;113.478;2023-12-20T00:10:52;76.20;;;33.72;;
70414;SDS011;57837;52.064;113.478;2023-12-20T00:13:55;48.97;;;23.40;;
70414;SDS011;57837;52.064;113.478;2023-12-20T00:16:59;152.38;;;60.47;;
70414;SDS011;57837;52.064;113.478;2023-12-20T00:20:02;75.23;;;42.43;;
70414;SDS011;57837;52.064;113.478;2023-12-20T00:23:07;117.97;;;66.45;;
70414;SDS011;57837;52.064;113.478;2023-12-20T00:26:10;78.47;;;39.53;;
70414;SDS011;57837;52.064;113.478;2023-12-20T00:29:14;86.47;;;36.47;;
70414;SDS011;57837;52.064;113.478;2023-12-20T00:32:18;101.18;;;52.60;;
70414;SDS011;57837;52.064;113.478;2023-12-20T00:35:23;133.15;;;59.55;;
70414;SDS011;57837;52.064;113.478;2023-12-20T00:38:27;169.48;;;72.50;;
70414;SDS011;57837;52.064;113.478;2023-12-20T00:41:31;101.10;;;57.42;;
70414;SDS011;57837;52.064;113.478;2023-12-20T00:44:34;178.23;;;82.90;;
70414;SDS011;57837;52.064;113.478;2023-12-20T00:47:38;247.98;;;88.75;;
70414;SDS011;57837;52.064;113.478;2023-12-20T00:50:41;159.23;;;79.47;;
70414;SDS011;57837;52.064;113.478;2023-12-20T00:53:45;175.30;;;86.55;;
70414;SDS011;57837;52.064;113.478;2023-12-20T00:56:52;145.98;;;73.28;;
70414;SDS011;57837;52.064;113.478;2023-12-20T00:59:56;172.37;;;72.90;;
70414;SDS011;57837;52.064;113.478;2023-12-20T01:03:00;112.28;;;55.55;;
70414;SDS011;57837;52.064;113.478;2023-12-20T01:06:04;171.07;;;80.22;;
70414;SDS011;57837;52.064;113.478;2023-12-20T01:09:08;121.30;;;65.00;;
70414;SDS011;57837;52.064;113.478;2023-12-20T01:12:12;121.53;;;58.08;;
70414;SDS011;57837;52.064;113.478;2023-12-20T01:15:16;193.95;;;81.25;;
70414;SDS011;57837;52.064;113.478;2023-12-20T01:18:19;131.73;;;54.40;;
70414;SDS011;57837;52.064;113.478;2023-12-20T01:21:23;140.43;;;70.77;;
70414;SDS011;57837;52.064;113.478;2023-12-20T01:24:26;204.40;;;87.05;;
70414;SDS011;57837;52.064;113.478;2023-12-20T01:27:29;106.97;;;51.35;;
70414;SDS011;57837;52.064;113.478;2023-12-20T01:30:34;144.40;;;65.57;;
70414;SDS011;57837;52.064;113.478;2023-12-20T01:33:37;78.60;;;45.25;;
70414;SDS011;57837;52.064;113.478;2023-12-20T01:36:40;76.53;;;35.78;;
70414;SDS011;57837;52.064;113.478;2023-12-20T01:39:45;173.60;;;60.28;;
70414;SDS011;57837;52.064;113.478;2023-12-20T01:42:58;100.35;;;47.35;;
70414;SDS011;57837;52.064;113.478;2023-12-20T01:46:06;164.05;;;66.97;;
70414;SDS011;57837;52.064;113.478;2023-12-20T01:49:10;94.38;;;41.67;;
70414;SDS011;57837;52.064;113.478;2023-12-20T01:52:15;110.07;;;55.20;;
70414;SDS011;57837;52.064;113.478;2023-12-20T01:55:20;136.60;;;73.63;;
70414;SDS011;57837;52.064;113.478;2023-12-20T01:58:25;139.00;;;66.57;;
70414;SDS011;57837;52.064;113.478;2023-12-20T02:01:29;148.23;;;70.47;;
70414;SDS011;57837;52.064;113.478;2023-12-20T02:04:34;124.18;;;67.95;;
70414;SDS011;57837;52.064;113.478;2023-12-20T02:07:38;74.03;;;59.35;;
70414;SDS011;57837;52.064;113.478;2023-12-20T02:10:41;68.88;;;41.95;;
70414;SDS011;57837;52.064;113.478;2023-12-20T02:13:45;74.22;;;53.95;;
70414;SDS011;57837;52.064;113.478;2023-12-20T02:16:49;67.93;;;45.25;;
70414;SDS011;57837;52.064;113.478;2023-12-20T02:19:53;159.35;;;85.93;;
70414;SDS011;57837;52.064;113.478;2023-12-20T02:22:57;49.53;;;44.43;;
70414;SDS011;57837;52.064;113.478;2023-12-20T02:26:00;62.10;;;45.17;;
70414;SDS011;57837;52.064;113.478;2023-12-20T02:29:04;82.43;;;53.10;;
70414;SDS011;57837;52.064;113.478;2023-12-20T02:32:08;63.40;;;43.47;;
70414;SDS011;57837;52.064;113.478;2023-12-20T02:35:13;110.30;;;75.05;;
70414;SDS011;57837;52.064;113.478;2023-12-20T02:38:17;137.80;;;51.97;;
70414;SDS011;57837;52.064;113.478;2023-12-20T02:41:20;67.80;;;49.03;;
70414;SDS011;57837;52.064;113.478;2023-12-20T02:44:23;114.55;;;67.85;;
70414;SDS011;57837;52.064;113.478;2023-12-20T02:47:27;80.50;;;54.25;;
70414;SDS011;57837;52.064;113.478;2023-12-20T02:50:32;109.63;;;53.28;;
70414;SDS011;57837;52.064;113.478;2023-12-20T02:53:36;73.83;;;45.07;;
70414;SDS011;57837;52.064;113.478;2023-12-20T02:56:39;104.25;;;65.15;;
70414;SDS011;57837;52.064;113.478;2023-12-20T02:59:43;84.05;;;60.97;;
70414;SDS011;57837;52.064;113.478;2023-12-20T03:02:47;152.10;;;66.47;;
70414;SDS011;57837;52.064;113.478;2023-12-20T03:05:51;117.05;;;52.15;;
70414;SDS011;57837;52.064;113.478;2023-12-20T03:08:54;48.28;;;34.28;;
70414;SDS011;57837;52.064;113.478;2023-12-20T03:11:57;112.05;;;52.70;;
70414;SDS011;57837;52.064;113.478;2023-12-20T03:15:00;74.05;;;39.53;;
70414;SDS011;57837;52.064;113.478;2023-12-20T03:18:04;72.32;;;45.03;;
70414;SDS011;57837;52.064;113.478;2023-12-20T03:21:07;109.10;;;47.50;;
70414;SDS011;57837;52.064;113.478;2023-12-20T03:24:12;61.80;;;32.80;;
70414;SDS011;57837;52.064;113.478;2023-12-20T03:27:15;30.15;;;22.38;;
70414;SDS011;57837;52.064;113.478;2023-12-20T03:30:21;32.00;;;17.52;;
70414;SDS011;57837;52.064;113.478;2023-12-20T03:33:24;31.77;;;15.30;;
70414;SDS011;57837;52.064;113.478;2023-12-20T03:36:28;31.70;;;17.35;;
70414;SDS011;57837;52.064;113.478;2023-12-20T03:39:31;12.90;;;9.05;;
70414;SDS011;57837;52.064;113.478;2023-12-20T03:42:35;51.47;;;10.50;;
70414;SDS011;57837;52.064;113.478;2023-12-20T03:45:38;22.15;;;13.23;;
70414;SDS011;57837;52.064;113.478;2023-12-20T03:48:42;31.92;;;12.65;;
70414;SDS011;57837;52.064;113.478;2023-12-20T03:51:47;50.53;;;23.35;;
70414;SDS011;57837;52.064;113.478;2023-12-20T03:54:50;21.43;;;15.00;;
70414;SDS011;57837;52.064;113.478;2023-12-20T03:57:55;42.30;;;23.13;;
70414;SDS011;57837;52.064;113.478;2023-12-20T04:00:59;24.65;;;16.30;;
70414;SDS011;57837;52.064;113.478;2023-12-20T04:04:02;94.53;;;35.97;;
70414;SDS011;57837;52.064;113.478;2023-12-20T04:07:06;57.33;;;28.58;;
70414;SDS011;57837;52.064;113.478;2023-12-20T04:10:10;30.65;;;15.55;;
70414;SDS011;57837;52.064;113.478;2023-12-20T04:13:14;48.33;;;16.27;;
70414;SDS011;57837;52.064;113.478;2023-12-20T04:16:18;40.47;;;17.83;;
70414;SDS011;57837;52.064;113.478;2023-12-20T04:19:21;45.30;;;17.23;;
70414;SDS011;57837;52.064;113.478;2023-12-20T04:22:25;57.78;;;38.90;;
70414;SDS011;57837;52.064;113.478;2023-12-20T04:25:28;35.73;;;21.93;;
70414;SDS011;57837;52.064;113.478;2023-12-20T04:28:31;18.33;;;12.52;;
70414;SDS011;57837;52.064;113.478;2023-12-20T04:31:35;31.85;;;20.85;;
70414;SDS011;57837;52.064;113.478;2023-12-20T04:34:39;21.80;;;14.43;;
70414;SDS011;57837;52.064;113.478;2023-12-20T04:37:42;11.20;;;9.05;;
70414;SDS011;57837;52.064;113.478;2023-12-20T04:40:47;32.78;;;24.83;;
70414;SDS011;57837;52.064;113.478;2023-12-20T04:43:50;9.48;;;8.27;;
70414;SDS011;57837;52.064;113.478;2023-12-20T04:46:54;10.88;;;9.65;;
70414;SDS011;57837;52.064;113.478;2023-12-20T04:49:59;12.95;;;6.78;;
70414;SDS011;57837;52.064;113.478;2023-12-20T04:53:03;29.63;;;13.85;;
70414;SDS011;57837;52.064;113.478;2023-12-20T04:56:07;4.37;;;4.07;;
70414;SDS011;57837;52.064;113.478;2023-12-20T04:59:10;26.42;;;9.57;;
70414;SDS011;57837;52.064;113.478;2023-12-20T05:02:13;25.27;;;14.85;;
70414;SDS011;57837;52.064;113.478;2023-12-20T05:05:16;10.70;;;6.47;;
70414;SDS011;57837;52.064;113.478;2023-12-20T05:08:21;9.15;;;7.03;;
70414;SDS011;57837;52.064;113.478;2023-12-20T05:11:24;72.60;;;32.83;;
70414;SDS011;57837;52.064;113.478;2023-12-20T05:14:28;89.72;;;37.47;;
70414;SDS011;57837;52.064;113.478;2023-12-20T05:17:31;42.35;;;19.25;;
70414;SDS011;57837;52.064;113.478;2023-12-20T05:20:35;23.88;;;20.35;;
70414;SDS011;57837;52.064;113.478;2023-12-20T05:23:40;35.25;;;16.95;;
70414;SDS011;57837;52.064;113.478;2023-12-20T05:26:43;28.97;;;13.30;;
70414;SDS011;57837;52.064;113.478;2023-12-20T05:29:47;4.78;;;2.97;;
70414;SDS011;57837;52.064;113.478;2023-12-20T05:32:51;14.77;;;6.70;;
70414;SDS011;57837;52.064;113.478;2023-12-20T05:35:55;26.20;;;5.83;;
70414;SDS011;57837;52.064;113.478;2023-12-20T05:38:59;12.35;;;8.63;;
70414;SDS011;57837;52.064;113.478;2023-12-20T05:42:02;8.63;;;4.47;;
70414;SDS011;57837;52.064;113.478;2023-12-20T05:45:06;10.18;;;7.20;;
70414;SDS011;57837;52.064;113.478;2023-12-20T05:48:10;6.63;;;6.00;;
70414;SDS011;57837;52.064;113.478;2023-12-20T05:51:14;31.90;;;8.25;;
70414;SDS011;57837;52.064;113.478;2023-12-20T05:54:18;7.05;;;3.40;;
70414;SDS011;57837;52.064;113.478;2023-12-20T05:57:21;1.10;;;1.03;;
70414;SDS011;57837;52.064;113.478;2023-12-20T06:00:26;8.57;;;7.85;;
70414;SDS011;57837;52.064;113.478;2023-12-20T06:03:29;23.23;;;11.02;;
70414;SDS011;57837;52.064;113.478;2023-12-20T06:06:33;15.83;;;13.17;;
70414;SDS011;57837;52.064;113.478;2023-12-20T06:09:37;38.40;;;18.75;;
70414;SDS011;57837;52.064;113.478;2023-12-20T06:12:41;7.97;;;7.38;;
70414;SDS011;57837;52.064;113.478;2023-12-20T06:15:45;31.63;;;22.13;;
70414;SDS011;57837;52.064;113.478;2023-12-20T06:18:49;43.22;;;20.92;;
70414;SDS011;57837;52.064;113.478;2023-12-20T06:21:54;13.43;;;9.57;;
70414;SDS011;57837;52.064;113.478;2023-12-20T06:24:57;17.65;;;8.38;;
70414;SDS011;57837;52.064;113.478;2023-12-20T06:28:02;13.73;;;9.87;;
70414;SDS011;57837;52.064;113.478;2023-12-20T06:31:05;39.28;;;16.30;;
70414;SDS011;57837;52.064;113.478;2023-12-20T06:34:09;29.15;;;14.13;;
70414;SDS011;57837;52.064;113.478;2023-12-20T06:37:12;29.30;;;18.00;;
70414;SDS011;57837;52.064;113.478;2023-12-20T06:40:18;6.72;;;5.68;;
70414;SDS011;57837;52.064;113.478;2023-12-20T06:43:22;30.75;;;17.02;;
70414;SDS011;57837;52.064;113.478;2023-12-20T06:46:44;15.10;;;10.90;;
70414;SDS011;57837;52.064;113.478;2023-12-20T06:49:47;19.98;;;10.10;;
70414;SDS011;57837;52.064;113.478;2023-12-20T06:52:51;19.15;;;11.38;;
70414;SDS011;57837;52.064;113.478;2023-12-20T06:55:55;26.95;;;10.90;;
70414;SDS011;57837;52.064;113.478;2023-12-20T06:58:59;34.47;;;17.23;;
70414;SDS011;57837;52.064;113.478;2023-12-20T07:02:03;35.85;;;21.75;;
70414;SDS011;57837;52.064;113.478;2023-12-20T07:05:16;12.93;;;10.13;;
70414;SDS011;57837;52.064;113.478;2023-12-20T07:08:23;24.63;;;12.50;;
70414;SDS011;57837;52.064;113.478;2023-12-20T07:11:27;27.15;;;11.65;;
70414;SDS011;57837;52.064;113.478;2023-12-20T07:14:30;34.72;;;11.00;;
70414;SDS011;57837;52.064;113.478;2023-12-20T07:17:33;19.70;;;8.10;;
70414;SDS011;57837;52.064;113.478;2023-12-20T07:20:37;23.67;;;8.57;;
70414;SDS011;57837;52.064;113.478;2023-12-20T07:23:41;12.90;;;6.80;;
70414;SDS011;57837;52.064;113.478;2023-12-20T07:26:45;11.80;;;7.55;;
70414;SDS011;57837;52.064;113.478;2023-12-20T07:29:48;20.43;;;9.27;;
70414;SDS011;57837;52.064;113.478;2023-12-20T07:32:51;14.90;;;5.85;;
70414;SDS011;57837;52.064;113.478;2023-12-20T07:35:55;12.13;;;6.38;;
70414;SDS011;57837;52.064;113.478;2023-12-20T07:38:59;2.77;;;1.20;;
70414;SDS011;57837;52.064;113.478;2023-12-20T07:42:03;21.27;;;10.50;;
70414;SDS011;57837;52.064;113.478;2023-12-20T07:45:06;7.30;;;4.68;;
70414;SDS011;57837;52.064;113.478;2023-12-20T07:48:09;6.75;;;4.80;;
70414;SDS011;57837;52.064;113.478;2023-12-20T07:51:13;35.97;;;17.50;;
70414;SDS011;57837;52.064;113.478;2023-12-20T07:54:17;16.38;;;9.13;;
70414;SDS011;57837;52.064;113.478;2023-12-20T07:57:21;6.03;;;2.13;;
70414;SDS011;57837;52.064;113.478;2023-12-20T08:00:26;25.23;;;7.70;;
70414;SDS011;57837;52.064;113.478;2023-12-20T08:03:31;31.77;;;22.75;;
70414;SDS011;57837;52.064;113.478;2023-12-20T08:06:34;76.82;;;37.35;;
70414;SDS011;57837;52.064;113.478;2023-12-20T08:09:38;30.57;;;18.80;;
70414;SDS011;57837;52.064;113.478;2023-12-20T08:12:41;81.00;;;36.42;;
70414;SDS011;57837;52.064;113.478;2023-12-20T08:15:45;97.70;;;44.25;;
70414;SDS011;57837;52.064;113.478;2023-12-20T08:18:48;81.38;;;42.30;;
70414;SDS011;57837;52.064;113.478;2023-12-20T08:21:53;71.35;;;27.33;;
70414;SDS011;57837;52.064;113.478;2023-12-20T08:24:57;42.00;;;26.13;;
70414;SDS011;57837;52.064;113.478;2023-12-20T08:28:01;72.15;;;35.13;;
70414;SDS011;57837;52.064;113.478;2023-12-20T08:31:05;24.70;;;10.90;;
70414;SDS011;57837;52.064;113.478;2023-12-20T08:34:10;60.85;;;27.48;;
70414;SDS011;57837;52.064;113.478;2023-12-20T08:37:15;62.47;;;31.52;;
70414;SDS011;57837;52.064;113.478;2023-12-20T08:40:19;57.00;;;30.60;;
70414;SDS011;57837;52.064;113.478;2023-12-20T08:43:23;59.17;;;34.75;;
70414;SDS011;57837;52.064;113.478;2023-12-20T08:46:27;164.77;;;68.07;;
70414;SDS011;57837;52.064;113.478;2023-12-20T08:49:31;90.00;;;48.17;;
70414;SDS011;57837;52.064;113.478;2023-12-20T08:52:35;96.32;;;40.85;;
70414;SDS011;57837;52.064;113.478;2023-12-20T08:55:39;121.63;;;50.53;;
70414;SDS011;57837;52.064;113.478;2023-12-20T08:58:44;97.28;;;38.38;;
70414;SDS011;57837;52.064;113.478;2023-12-20T09:01:49;16.80;;;9.87;;
70414;SDS011;57837;52.064;113.478;2023-12-20T09:04:56;58.72;;;31.70;;
70414;SDS011;57837;52.064;113.478;2023-12-20T09:08:00;44.80;;;18.17;;
70414;SDS011;57837;52.064;113.478;2023-12-20T09:11:03;37.90;;;21.27;;
70414;SDS011;57837;52.064;113.478;2023-12-20T09:14:06;67.75;;;26.75;;
70414;SDS011;57837;52.064;113.478;2023-12-20T09:17:10;14.63;;;12.07;;
70414;SDS011;57837;52.064;113.478;2023-12-20T09:20:15;32.55;;;17.02;;
70414;SDS011;57837;52.064;113.478;2023-12-20T09:23:19;15.13;;;11.30;;
70414;SDS011;57837;52.064;113.478;2023-12-20T09:26:23;19.73;;;17.83;;
70414;SDS011;57837;52.064;113.478;2023-12-20T09:29:27;24.48;;;13.68;;
70414;SDS011;57837;52.064;113.478;2023-12-20T09:32:31;9.17;;;7.00;;
70414;SDS011;57837;52.064;113.478;2023-12-20T09:35:35;33.30;;;16.65;;
70414;SDS011;57837;52.064;113.478;2023-12-20T09:38:39;27.92;;;7.40;;
70414;SDS011;57837;52.064;113.478;2023-12-20T09:41:43;75.07;;;36.63;;
70414;SDS011;57837;52.064;113.478;2023-12-20T09:44:49;20.95;;;18.60;;
70414;SDS011;57837;52.064;113.478;2023-12-20T09:47:54;44.15;;;26.92;;
70414;SDS011;57837;52.064;113.478;2023-12-20T09:50:57;35.50;;;24.38;;
70414;SDS011;57837;52.064;113.478;2023-12-20T09:54:03;48.70;;;35.85;;
70414;SDS011;57837;52.064;113.478;2023-12-20T09:57:07;110.03;;;55.58;;
70414;SDS011;57837;52.064;113.478;2023-12-20T10:00:15;45.70;;;30.80;;
70414;SDS011;57837;52.064;113.478;2023-12-20T10:03:24;12.37;;;6.43;;
70414;SDS011;57837;52.064;113.478;2023-12-20T10:06:31;20.85;;;15.38;;
70414;SDS011;57837;52.064;113.478;2023-12-20T10:09:36;41.65;;;23.98;;
70414;SDS011;57837;52.064;113.478;2023-12-20T10:12:42;12.43;;;7.97;;
70414;SDS011;57837;52.064;113.478;2023-12-20T10:16:13;17.73;;;12.32;;
70414;SDS011;57837;52.064;113.478;2023-12-20T10:19:17;44.70;;;19.70;;
70414;SDS011;57837;52.064;113.478;2023-12-20T10:22:22;4.00;;;3.70;;
70414;SDS011;57837;52.064;113.478;2023-12-20T10:25:25;21.80;;;15.82;;
70414;SDS011;57837;52.064;113.478;2023-12-20T10:28:34;25.80;;;13.90;;
70414;SDS011;57837;52.064;113.478;2023-12-20T10:31:38;19.95;;;10.85;;
70414;SDS011;57837;52.064;113.478;2023-12-20T10:34:42;19.53;;;11.03;;
70414;SDS011;57837;52.064;113.478;2023-12-20T10:37:46;33.08;;;16.92;;
70414;SDS011;57837;52.064;113.478;2023-12-20T10:40:52;39.22;;;25.42;;
70414;SDS011;57837;52.064;113.478;2023-12-20T10:44:05;17.37;;;11.10;;
70414;SDS011;57837;52.064;113.478;2023-12-20T10:47:12;12.27;;;9.48;;
70414;SDS011;57837;52.064;113.478;2023-12-20T10:50:22;27.92;;;14.27;;
70414;SDS011;57837;52.064;113.478;2023-12-20T10:53:30;23.75;;;12.10;;
70414;SDS011;57837;52.064;113.478;2023-12-20T10:56:40;7.80;;;6.80;;
70414;SDS011;57837;52.064;113.478;2023-12-20T10:59:45;5.55;;;5.13;;
70414;SDS011;57837;52.064;113.478;2023-12-20T11:02:54;13.57;;;8.57;;
70414;SDS011;57837;52.064;113.478;2023-12-20T11:06:19;16.07;;;6.70;;
70414;SDS011;57837;52.064;113.478;2023-12-20T11:09:40;5.10;;;4.03;;
70414;SDS011;57837;52.064;113.478;2023-12-20T11:12:53;15.95;;;6.35;;
70414;SDS011;57837;52.064;113.478;2023-12-20T11:16:03;4.57;;;3.60;;
70414;SDS011;57837;52.064;113.478;2023-12-20T11:19:08;12.40;;;6.75;;
70414;SDS011;57837;52.064;113.478;2023-12-20T11:22:14;5.63;;;4.95;;
70414;SDS011;57837;52.064;113.478;2023-12-20T11:25:18;3.10;;;1.23;;
70414;SDS011;57837;52.064;113.478;2023-12-20T11:28:24;4.15;;;3.55;;
70414;SDS011;57837;52.064;113.478;2023-12-20T11:31:29;19.08;;;5.25;;
70414;SDS011;57837;52.064;113.478;2023-12-20T11:34:43;2.75;;;2.47;;
70414;SDS011;57837;52.064;113.478;2023-12-20T11:37:47;6.17;;;2.03;;
70414;SDS011;57837;52.064;113.478;2023-12-20T11:40:53;8.82;;;5.65;;
70414;SDS011;57837;52.064;113.478;2023-12-20T11:43:59;19.30;;;12.65;;
70414;SDS011;57837;52.064;113.478;2023-12-20T11:47:04;9.40;;;8.03;;
70414;SDS011;57837;52.064;113.478;2023-12-20T11:50:08;10.32;;;5.40;;
70414;SDS011;57837;52.064;113.478;2023-12-20T11:53:12;14.20;;;7.68;;
70414;SDS011;57837;52.064;113.478;2023-12-20T11:56:16;12.77;;;9.32;;
70414;SDS011;57837;52.064;113.478;2023-12-20T11:59:20;3.63;;;2.75;;
70414;SDS011;57837;52.064;113.478;2023-12-20T12:02:25;11.80;;;8.73;;
70414;SDS011;57837;52.064;113.478;2023-12-20T12:05:30;7.18;;;6.47;;
70414;SDS011;57837;52.064;113.478;2023-12-20T12:08:36;30.53;;;15.70;;
70414;SDS011;57837;52.064;113.478;2023-12-20T12:11:40;30.23;;;10.45;;
70414;SDS011;57837;52.064;113.478;2023-12-20T12:14:44;7.55;;;6.93;;
70414;SDS011;57837;52.064;113.478;2023-12-20T12:17:55;17.47;;;10.77;;
70414;SDS011;57837;52.064;113.478;2023-12-20T12:21:00;2.58;;;2.38;;
70414;SDS011;57837;52.064;113.478;2023-12-20T12:24:14;15.60;;;12.65;;
70414;SDS011;57837;52.064;113.478;2023-12-20T12:27:18;15.25;;;9.30;;
70414;SDS011;57837;52.064;113.478;2023-12-20T12:30:22;10.85;;;5.55;;
70414;SDS011;57837;52.064;113.478;2023-12-20T12:33:26;17.00;;;15.25;;
70414;SDS011;57837;52.064;113.478;2023-12-20T12:36:30;3.47;;;3.17;;
70414;SDS011;57837;52.064;113.478;2023-12-20T12:39:35;12.40;;;6.77;;
70414;SDS011;57837;52.064;113.478;2023-12-20T12:42:40;9.40;;;5.88;;
70414;SDS011;57837;52.064;113.478;2023-12-20T12:45:45;20.52;;;14.35;;
70414;SDS011;57837;52.064;113.478;2023-12-20T12:48:49;15.20;;;7.00;;
70414;SDS011;57837;52.064;113.478;2023-12-20T12:51:54;6.10;;;4.95;;
70414;SDS011;57837;52.064;113.478;2023-12-20T12:55:01;31.08;;;14.23;;
70414;SDS011;57837;52.064;113.478;2023-12-20T12:58:07;28.08;;;17.35;;
70414;SDS011;57837;52.064;113.478;2023-12-20T13:01:11;20.92;;;11.65;;
70414;SDS011;57837;52.064;113.478;2023-12-20T13:04:15;30.33;;;16.85;;
70414;SDS011;57837;52.064;113.478;2023-12-20T13:07:18;18.40;;;11.50;;
70414;SDS011;57837;52.064;113.478;2023-12-20T13:10:22;14.83;;;7.67;;
70414;SDS011;57837;52.064;113.478;2023-12-20T13:13:26;12.23;;;10.07;;
70414;SDS011;57837;52.064;113.478;2023-12-20T13:16:32;5.53;;;5.05;;
70414;SDS011;57837;52.064;113.478;2023-12-20T13:19:37;31.43;;;18.50;;
70414;SDS011;57837;52.064;113.478;2023-12-20T13:22:41;15.77;;;8.60;;
70414;SDS011;57837;52.064;113.478;2023-12-20T13:25:44;17.00;;;12.23;;
70414;SDS011;57837;52.064;113.478;2023-12-20T13:28:50;20.38;;;13.30;;
70414;SDS011;57837;52.064;113.478;2023-12-20T13:31:54;38.92;;;18.52;;
70414;SDS011;57837;52.064;113.478;2023-12-20T13:34:58;25.65;;;11.00;;
70414;SDS011;57837;52.064;113.478;2023-12-20T13:38:02;10.90;;;8.10;;
70414;SDS011;57837;52.064;113.478;2023-12-20T13:41:06;17.93;;;4.83;;
70414;SDS011;57837;52.064;113.478;2023-12-20T13:44:10;32.45;;;13.52;;
70414;SDS011;57837;52.064;113.478;2023-12-20T13:47:15;10.15;;;8.10;;
70414;SDS011;57837;52.064;113.478;2023-12-20T13:50:19;7.00;;;4.57;;
70414;SDS011;57837;52.064;113.478;2023-12-20T13:53:23;12.30;;;4.93;;
70414;SDS011;57837;52.064;113.478;2023-12-20T13:56:27;4.00;;;3.40;;
70414;SDS011;57837;52.064;113.478;2023-12-20T13:59:31;10.48;;;7.45;;
70414;SDS011;57837;52.064;113.478;2023-12-20T14:02:37;16.25;;;11.60;;
70414;SDS011;57837;52.064;113.478;2023-12-20T14:05:44;22.10;;;6.43;;
70414;SDS011;57837;52.064;113.478;2023-12-20T14:08:48;3.17;;;2.35;;
70414;SDS011;57837;52.064;113.478;2023-12-20T14:11:54;22.07;;;6.33;;
70414;SDS011;57837;52.064;113.478;2023-12-20T14:15:03;33.50;;;17.38;;
70414;SDS011;57837;52.064;113.478;2023-12-20T14:18:22;66.30;;;27.77;;
70414;SDS011;57837;52.064;113.478;2023-12-20T14:21:28;47.63;;;17.90;;
70414;SDS011;57837;52.064;113.478;2023-12-20T14:24:32;24.52;;;10.80;;
70414;SDS011;57837;52.064;113.478;2023-12-20T14:27:36;20.77;;;9.23;;
70414;SDS011;57837;52.064;113.478;2023-12-20T14:30:41;5.50;;;4.82;;
70414;SDS011;57837;52.064;113.478;2023-12-20T14:33:45;17.25;;;9.07;;
70414;SDS011;57837;52.064;113.478;2023-12-20T14:36:53;4.95;;;4.50;;
70414;SDS011;57837;52.064;113.478;2023-12-20T14:39:59;4.50;;;3.13;;
70414;SDS011;57837;52.064;113.478;2023-12-20T14:43:05;4.30;;;2.77;;
70414;SDS011;57837;52.064;113.478;2023-12-20T14:46:19;10.38;;;7.03;;
70414;SDS011;57837;52.064;113.478;2023-12-20T14:49:23;6.13;;;3.00;;
70414;SDS011;57837;52.064;113.478;2023-12-20T14:52:28;17.93;;;12.57;;
70414;SDS011;57837;52.064;113.478;2023-12-20T14:55:33;14.20;;;10.60;;
70414;SDS011;57837;52.064;113.478;2023-12-20T14:58:38;9.15;;;6.55;;
70414;SDS011;57837;52.064;113.478;2023-12-20T15:01:43;15.38;;;14.00;;
70414;SDS011;57837;52.064;113.478;2023-12-20T15:04:47;11.48;;;6.53;;
70414;SDS011;57837;52.064;113.478;2023-12-20T15:07:51;7.55;;;6.80;;
70414;SDS011;57837;52.064;113.478;2023-12-20T15:10:55;11.20;;;10.07;;
70414;SDS011;57837;52.064;113.478;2023-12-20T15:13:59;17.30;;;11.13;;
70414;SDS011;57837;52.064;113.478;2023-12-20T15:17:04;13.10;;;6.28;;
70414;SDS011;57837;52.064;113.478;2023-12-20T15:20:11;23.90;;;13.48;;
70414;SDS011;57837;52.064;113.478;2023-12-20T15:23:16;18.23;;;13.73;;
70414;SDS011;57837;52.064;113.478;2023-12-20T15:26:20;7.63;;;6.93;;
70414;SDS011;57837;52.064;113.478;2023-12-20T15:29:24;25.15;;;20.48;;
70414;SDS011;57837;52.064;113.478;2023-12-20T15:32:28;7.60;;;6.85;;
70414;SDS011;57837;52.064;113.478;2023-12-20T15:35:32;15.32;;;10.88;;
70414;SDS011;57837;52.064;113.478;2023-12-20T15:38:35;29.35;;;10.52;;
70414;SDS011;57837;52.064;113.478;2023-12-20T15:41:40;9.40;;;8.55;;
70414;SDS011;57837;52.064;113.478;2023-12-20T15:44:44;9.93;;;7.80;;
70414;SDS011;57837;52.064;113.478;2023-12-20T15:47:49;8.60;;;3.58;;
70414;SDS011;57837;52.064;113.478;2023-12-20T15:50:52;10.02;;;7.13;;
70414;SDS011;57837;52.064;113.478;2023-12-20T15:53:55;17.43;;;8.40;;
70414;SDS011;57837;52.064;113.478;2023-12-20T15:57:00;5.05;;;4.07;;
70414;SDS011;57837;52.064;113.478;2023-12-20T16:00:04;21.15;;;12.18;;
70414;SDS011;57837;52.064;113.478;2023-12-20T16:03:09;15.05;;;10.20;;
70414;SDS011;57837;52.064;113.478;2023-12-20T16:06:26;12.43;;;10.48;;
70414;SDS011;57837;52.064;113.478;2023-12-20T16:09:30;11.32;;;10.30;;
70414;SDS011;57837;52.064;113.478;2023-12-20T16:12:33;14.30;;;8.00;;
70414;SDS011;57837;52.064;113.478;2023-12-20T16:15:37;7.03;;;6.40;;
70414;SDS011;57837;52.064;113.478;2023-12-20T16:18:41;10.65;;;7.68;;
70414;SDS011;57837;52.064;113.478;2023-12-20T16:21:45;20.65;;;9.35;;
70414;SDS011;57837;52.064;113.478;2023-12-20T16:24:48;36.53;;;17.03;;
70414;SDS011;57837;52.064;113.478;2023-12-20T16:27:51;19.50;;;6.97;;
70414;SDS011;57837;52.064;113.478;2023-12-20T16:30:56;5.82;;;5.18;;
70414;SDS011;57837;52.064;113.478;2023-12-20T16:33:59;10.23;;;5.63;;
70414;SDS011;57837;52.064;113.478;2023-12-20T16:37:08;15.75;;;10.27;;
70414;SDS011;57837;52.064;113.478;2023-12-20T16:40:11;3.28;;;2.97;;
70414;SDS011;57837;52.064;113.478;2023-12-20T16:43:15;7.35;;;6.13;;
70414;SDS011;57837;52.064;113.478;2023-12-20T16:46:19;8.03;;;7.13;;
70414;SDS011;57837;52.064;113.478;2023-12-20T16:49:24;26.10;;;20.95;;
70414;SDS011;57837;52.064;113.478;2023-12-20T16:52:28;14.65;;;8.38;;
70414;SDS011;57837;52.064;113.478;2023-12-20T16:55:32;7.70;;;6.97;;
70414;SDS011;57837;52.064;113.478;2023-12-20T16:58:36;4.80;;;4.10;;
70414;SDS011;57837;52.064;113.478;2023-12-20T17:01:40;12.10;;;5.97;;
70414;SDS011;57837;52.064;113.478;2023-12-20T17:04:48;28.40;;;8.32;;
70414;SDS011;57837;52.064;113.478;2023-12-20T17:07:51;1.17;;;1.08;;
70414;SDS011;57837;52.064;113.478;2023-12-20T17:10:55;9.93;;;3.05;;
70414;SDS011;57837;52.064;113.478;2023-12-20T17:13:59;13.90;;;8.20;;
70414;SDS011;57837;52.064;113.478;2023-12-20T17:17:03;9.60;;;6.53;;
70414;SDS011;57837;52.064;113.478;2023-12-20T17:20:07;21.00;;;8.35;;
70414;SDS011;57837;52.064;113.478;2023-12-20T17:23:11;2.40;;;1.73;;
70414;SDS011;57837;52.064;113.478;2023-12-20T17:26:15;21.53;;;9.57;;
70414;SDS011;57837;52.064;113.478;2023-12-20T17:29:18;16.20;;;8.35;;
70414;SDS011;57837;52.064;113.478;2023-12-20T17:32:22;13.82;;;6.20;;
70414;SDS011;57837;52.064;113.478;2023-12-20T17:35:27;10.02;;;9.02;;